Time;durP1;ratioP1;P1;durP2;ratioP2;P2;SDS_P1;SDS_P2;PMS_P1;PMS_P2;Temp;Humidity;BMP_temperature;BMP_pressure;BME280_temperature;BME280_humidity;BME280_pressure;Samples;Min_cycle;Max_cycle;Signal;HPM_P1;HPM_P2
2022/11/04 00:01:17;;;;;;;;;;;;;;;14.84;59.92;98474.97;4488893;31;19968;-80
2022/11/04 00:03:42;;;;;;;;;;;;;;;14.84;59.95;98474.97;4488840;31;19971;-81
2022/11/04 00:06:07;;;;;;;;;;;;;;;14.78;60.04;98472.78;4488853;31;20013;-80
2022/11/04 00:08:33;;;;;;;;;;;;;;;14.71;60.25;98467.09;4503290;31;20002;-81
2022/11/04 00:13:42;;;;;;;;;;;;;;;14.68;60.39;98462.88;4503078;31;20046;-81
2022/11/04 00:18:51;;;;;;;;;;;;;;;14.68;60.41;98446.13;4490953;31;19998;-81
2022/11/04 00:29:29;;;;;;;;;;;;;;;14.64;60.67;98442.88;4502911;31;19998;-81
2022/11/04 00:34:41;;;;;;;;;;;;;;;14.64;60.64;98437.56;4490905;31;20096;-80
2022/11/04 00:37:07;;;;;;;;;;;;;;;14.68;60.58;98425.78;4502900;31;20303;-80
2022/11/04 00:39:32;;;;;;;;;;;;;;;14.69;60.53;98424.78;4502919;31;20050;-81
2022/11/04 00:41:57;;;;;;;;;;;;;;;14.70;60.54;98415.87;4502801;31;19972;-81
2022/11/04 00:44:22;;;;;;;;;;;;;;;14.68;60.60;98414.31;4488239;31;20247;-80
2022/11/04 00:46:48;;;;;;;;;;;;;;;14.67;60.74;98412.62;4502668;31;19964;-80
2022/11/04 00:49:13;;;;;;;;;;;;;;;14.68;60.78;98406.34;4502719;31;19993;-80
2022/11/04 00:51:38;;;;;;;;;;;;;;;14.62;60.88;98398.88;4502766;31;20283;-81
2022/11/04 00:54:03;;;;;;;;;;;;;;;14.65;60.97;98393.34;4502562;31;19980;-81
2022/11/04 00:56:29;;;;;;;;;;;;;;;14.64;60.98;98394.28;4488301;31;19995;-78
2022/11/04 00:58:54;;;;;;;;;;;;;;;14.58;61.15;98390.31;4488472;31;19987;-77
2022/11/04 01:01:19;;;;;;;;;;;;;;;14.61;61.16;98391.91;4486072;31;19982;-77
2022/11/04 01:03:45;;;;;;;;;;;;;;;14.67;61.09;98399.38;4489573;31;19984;-78
2022/11/04 01:06:10;;;;;;;;;;;;;;;14.69;61.07;98405.41;4486613;32;19995;-78
2022/11/04 01:08:35;;;;;;;;;;;;;;;14.69;61.16;98400.09;4486608;32;20292;-78
2022/11/04 01:11:02;;;;;;;;;;;;;;;14.73;61.09;98410.34;4472168;32;19976;-77
2022/11/04 01:13:27;;;;;;;;;;;;;;;14.77;60.96;98399.50;4490102;31;19963;-76
2022/11/04 01:15:52;;;;;;;;;;;;;;;14.72;61.06;98395.41;4502086;31;20303;-77
2022/11/04 01:18:17;;;;;;;;;;;;;;;14.78;60.87;98388.78;4502445;31;20228;-78
2022/11/04 01:20:43;;;;;;;;;;;;;;;14.79;60.92;98385.16;4502238;31;20094;-78
2022/11/04 01:23:08;;;;;;;;;;;;;;;14.78;60.90;98380.81;4501019;31;19981;-78
2022/11/04 01:25:33;;;;;;;;;;;;;;;14.74;61.00;98385.50;4501587;31;20348;-77
2022/11/04 01:27:59;;;;;;;;;;;;;;;14.80;60.96;98381.53;4502509;31;19979;-78
2022/11/04 01:30:24;;;;;;;;;;;;;;;14.82;60.92;98379.63;4503045;31;19967;-78
2022/11/04 01:32:52;;;;;;;;;;;;;;;14.83;60.90;98372.50;4504174;31;19967;-78
2022/11/04 01:35:17;;;;;;;;;;;;;;;14.78;61.08;98367.56;4490116;31;20345;-78
2022/11/04 01:37:42;;;;;;;;;;;;;;;14.81;61.06;98362.00;4504164;31;19983;-78
2022/11/04 01:40:08;;;;;;;;;;;;;;;14.83;60.91;98365.38;4489739;31;19979;-78
2022/11/04 01:42:33;;;;;;;;;;;;;;;14.87;60.91;98363.31;4489745;31;19980;-78
2022/11/04 01:44:59;;;;;;;;;;;;;;;14.87;60.93;98352.72;4504224;31;19963;-78
2022/11/04 01:47:43;;;;;;;;;;;;;;;14.85;61.07;98342.22;4504161;31;19984;-78
2022/11/04 01:50:15;;;;;;;;;;;;;;;14.86;61.01;98332.47;4504473;31;19990;-78
2022/11/04 01:52:43;;;;;;;;;;;;;;;14.85;61.10;98320.19;4489902;31;19967;-78
2022/11/04 01:55:28;;;;;;;;;;;;;;;14.84;61.23;98318.50;4503315;31;20051;-78
2022/11/04 01:57:54;;;;;;;;;;;;;;;14.86;61.19;98321.88;4503286;31;19998;-78
2022/11/04 02:00:20;;;;;;;;;;;;;;;14.86;61.12;98316.56;4503174;31;19986;-78
2022/11/04 02:02:50;;;;;;;;;;;;;;;14.88;61.07;98315.47;4504390;31;19991;-77
2022/11/04 02:05:15;;;;;;;;;;;;;;;14.86;61.23;98305.97;4504322;31;20318;-78
2022/11/04 02:07:40;;;;;;;;;;;;;;;14.86;61.30;98303.31;4503225;31;20019;-78
2022/11/04 02:10:06;;;;;;;;;;;;;;;14.88;61.26;98302.22;4504276;31;20232;-78
2022/11/04 02:12:50;;;;;;;;;;;;;;;14.89;61.30;98292.44;4503039;31;19986;-77
2022/11/04 02:15:34;;;;;;;;;;;;;;;14.95;61.11;98294.63;4504434;31;20311;-78
2022/11/04 02:18:04;;;;;;;;;;;;;;;14.97;61.11;98299.78;4504060;31;19998;-78
2022/11/04 02:20:49;;;;;;;;;;;;;;;14.94;61.24;98293.75;4502723;31;20247;-78
2022/11/04 02:23:15;;;;;;;;;;;;;;;14.91;61.32;98291.38;4503588;31;20616;-78
2022/11/04 02:26:02;;;;;;;;;;;;;;;14.87;61.48;98291.72;4503900;31;20038;-78
2022/11/04 02:28:36;;;;;;;;;;;;;;;14.89;61.42;98281.84;4502613;31;20036;-80
2022/11/04 02:31:01;;;;;;;;;;;;;;;14.91;61.50;98287.84;4503863;31;19972;-81
2022/11/04 02:33:35;;;;;;;;;;;;;;;14.90;61.48;98275.56;4503726;31;19986;-81
2022/11/04 02:36:05;;;;;;;;;;;;;;;14.87;61.66;98273.16;4502686;31;19983;-80
2022/11/04 02:38:37;;;;;;;;;;;;;;;14.84;61.74;98261.00;4502659;31;19979;-80
2022/11/04 02:41:09;;;;;;;;;;;;;;;14.84;61.83;98262.81;4502655;31;20010;-81
2022/11/04 02:43:34;;;;;;;;;;;;;;;14.78;61.98;98250.91;4503811;31;20023;-81
2022/11/04 02:46:18;;;;;;;;;;;;;;;14.80;61.98;98256.09;4503822;31;19975;-80
2022/11/04 02:48:45;;;;;;;;;;;;;;;14.74;62.20;98249.47;4503668;31;19979;-80
2022/11/04 02:51:21;;;;;;;;;;;;;;;14.71;62.20;98247.03;4502581;31;19984;-81
2022/11/04 02:53:47;;;;;;;;;;;;;;;14.72;62.23;98246.94;4502516;31;19977;-81
2022/11/04 02:56:12;;;;;;;;;;;;;;;14.68;62.39;98250.78;4502759;31;19971;-81
2022/11/04 02:58:42;;;;;;;;;;;;;;;14.72;62.34;98249.56;4502546;31;20109;-80
2022/11/04 03:01:08;;;;;;;;;;;;;;;14.73;62.32;98255.72;4503674;31;19993;-80
2022/11/04 03:03:34;;;;;;;;;;;;;;;14.80;62.17;98250.78;4502431;31;19968;-80
2022/11/04 03:05:59;;;;;;;;;;;;;;;14.78;62.14;98252.72;4503633;31;20270;-80
2022/11/04 03:08:26;;;;;;;;;;;;;;;14.77;62.26;98254.50;4502403;31;19997;-81
2022/11/04 03:10:52;;;;;;;;;;;;;;;14.77;nan;98256.31;4489260;31;19989;-81
2022/11/04 03:13:25;;;;;;;;;;;;;;;14.78;62.09;98252.72;4502219;31;19963;-80
2022/11/04 03:15:52;;;;;;;;;;;;;;;14.73;62.05;98240.63;4489185;31;20021;-81
2022/11/04 03:18:28;;;;;;;;;;;;;;;14.68;62.11;98234.88;4502392;31;20001;-80
2022/11/04 03:20:53;;;;;;;;;;;;;;;14.60;62.36;98220.53;4503487;31;19979;-81
2022/11/04 03:23:18;;;;;;;;;;;;;;;14.55;62.59;98218.25;4502221;31;20291;-81
2022/11/04 03:25:45;;;;;;;;;;;;;;;14.55;62.62;98205.81;4503530;31;20003;-81
2022/11/04 03:28:10;;;;;;;;;;;;;;;14.52;62.75;98207.88;4502318;31;20006;-81
2022/11/04 03:30:39;;;;;;;;;;;;;;;14.57;62.61;98207.56;4503322;31;19991;-80
2022/11/04 03:33:04;;;;;;;;;;;;;;;14.54;62.69;98205.94;4502220;31;20364;-78
2022/11/04 03:35:30;;;;;;;;;;;;;;;14.52;62.79;98206.06;4503471;31;20006;-78
2022/11/04 03:37:55;;;;;;;;;;;;;;;14.51;62.86;98198.25;4489027;31;20306;-78
2022/11/04 03:40:20;;;;;;;;;;;;;;;14.54;62.79;98198.84;4502185;31;20050;-77
2022/11/04 03:42:58;;;;;;;;;;;;;;;14.54;62.79;98196.22;4502254;31;20015;-77
2022/11/04 03:45:24;;;;;;;;;;;;;;;14.35;63.44;98195.97;4502283;31;20638;-78
2022/11/04 03:47:49;;;;;;;;;;;;;;;14.45;63.16;98186.34;4502242;31;20015;-78
2022/11/04 03:50:28;;;;;;;;;;;;;;;14.45;63.17;98188.97;4501683;31;20020;-78
2022/11/04 03:52:53;;;;;;;;;;;;;;;14.48;62.99;98185.22;4492115;31;19979;-80
2022/11/04 03:55:19;;;;;;;;;;;;;;;14.45;63.00;98178.38;4474980;31;20353;-80
2022/11/04 03:57:51;;;;;;;;;;;;;;;14.50;62.87;98185.94;4502136;31;20049;-78
2022/11/04 04:00:17;;;;;;;;;;;;;;;14.26;63.51;98184.31;4502043;31;20072;-78
2022/11/04 04:02:46;;;;;;;;;;;;;;;14.39;62.99;98180.66;4488879;31;19967;-78
2022/11/04 04:05:14;;;;;;;;;;;;;;;14.41;62.79;98170.78;4488936;31;20002;-78
2022/11/04 04:07:51;;;;;;;;;;;;;;;14.43;62.62;98163.56;4476802;32;19988;-79
2022/11/04 04:13:04;;;;;;;;;;;;;;;14.37;62.74;98151.66;4475258;32;20017;-78
2022/11/04 04:15:32;;;;;;;;;;;;;;;14.29;63.09;98144.34;4473024;32;20030;-78
2022/11/04 04:17:58;;;;;;;;;;;;;;;14.31;62.92;98146.84;4473154;32;19991;-79
2022/11/04 04:20:25;;;;;;;;;;;;;;;14.28;62.88;98147.94;4473122;32;19972;-79
2022/11/04 04:22:51;;;;;;;;;;;;;;;14.22;62.94;98145.78;4473015;32;19960;-78
2022/11/04 04:28:00;;;;;;;;;;;;;;;13.98;63.60;98155.66;4475138;32;19994;-77
2022/11/04 04:30:25;;;;;;;;;;;;;;;14.07;63.23;98142.53;4459891;32;19976;-78
2022/11/04 04:33:02;;;;;;;;;;;;;;;14.08;63.18;98146.88;4472949;32;19972;-78
2022/11/04 04:35:43;;;;;;;;;;;;;;;14.15;62.93;98152.53;4459954;32;19984;-78
2022/11/04 04:46:36;;;;;;;;;;;;;;;14.10;63.08;98138.78;4491211;31;20137;-76
2022/11/04 04:49:05;;;;;;;;;;;;;;;14.09;63.21;98131.81;4476144;32;20032;-77
2022/11/04 04:51:30;;;;;;;;;;;;;;;14.13;63.11;98123.50;4482625;31;20094;-78
2022/11/04 04:53:56;;;;;;;;;;;;;;;14.18;62.90;98125.78;4472455;31;19983;-77
2022/11/04 04:56:21;;;;;;;;;;;;;;;14.18;62.92;98117.00;4494551;31;19999;-78
2022/11/04 04:58:46;;;;;;;;;;;;;;;14.18;62.97;98114.34;4475553;31;19983;-76
2022/11/04 05:01:11;;;;;;;;;;;;;;;14.19;62.88;98114.22;4462563;32;20051;-77
2022/11/04 05:03:37;;;;;;;;;;;;;;;14.24;62.62;98106.75;4484352;31;20004;-76
2022/11/04 05:06:02;;;;;;;;;;;;;;;14.31;62.39;98112.38;4489031;31;20000;-76
2022/11/04 05:08:27;;;;;;;;;;;;;;;14.27;62.44;98109.13;4496039;31;20363;-77
2022/11/04 05:10:53;;;;;;;;;;;;;;;14.28;62.43;98121.44;4493556;31;20020;-77
2022/11/04 05:13:29;;;;;;;;;;;;;;;14.30;62.24;98126.63;4477630;32;19980;-77
2022/11/04 05:16:04;;;;;;;;;;;;;;;14.25;62.33;98123.50;4485675;31;20043;-78
2022/11/04 05:18:29;;;;;;;;;;;;;;;14.25;62.30;98126.13;4477025;31;20391;-76
2022/11/04 05:20:54;;;;;;;;;;;;;;;14.07;62.78;98129.28;4478120;32;20027;-77
2022/11/04 05:23:20;;;;;;;;;;;;;;;14.20;62.39;98131.81;4495833;31;20274;-77
2022/11/04 05:25:45;;;;;;;;;;;;;;;14.26;62.14;98131.31;4473180;31;20019;-76
2022/11/04 05:28:10;;;;;;;;;;;;;;;14.29;61.98;98128.44;4492495;31;20015;-78
2022/11/04 05:30:36;;;;;;;;;;;;;;;14.30;62.02;98138.06;4488174;32;19971;-78
2022/11/04 05:33:01;;;;;;;;;;;;;;;14.30;61.94;98131.91;4474136;32;20020;-79
2022/11/04 05:35:26;;;;;;;;;;;;;;;14.31;61.95;98128.28;4488426;32;20323;-79
2022/11/04 05:37:51;;;;;;;;;;;;;;;14.29;62.00;98131.09;4474153;32;20038;-80
2022/11/04 05:40:17;;;;;;;;;;;;;;;14.32;61.88;98122.03;4474173;32;19963;-80
2022/11/04 05:42:42;;;;;;;;;;;;;;;14.33;61.79;98121.91;4474014;32;19994;-80
2022/11/04 05:45:07;;;;;;;;;;;;;;;14.26;61.86;98106.62;4488369;32;19969;-79
2022/11/04 05:47:33;;;;;;;;;;;;;;;14.26;61.67;98119.88;4488415;32;20002;-79
2022/11/04 05:49:58;;;;;;;;;;;;;;;14.27;61.55;98111.78;4488306;32;20019;-80
2022/11/04 05:52:23;;;;;;;;;;;;;;;14.24;61.62;98105.94;4488035;32;19980;-80
2022/11/04 05:54:48;;;;;;;;;;;;;;;14.21;61.75;98119.41;4488248;32;19991;-80
2022/11/04 05:57:14;;;;;;;;;;;;;;;14.18;61.79;98124.94;4474120;32;20352;-78
2022/11/04 05:59:39;;;;;;;;;;;;;;;14.21;61.50;98125.53;4473983;32;19978;-80
2022/11/04 06:02:04;;;;;;;;;;;;;;;14.23;61.58;98126.25;4488240;32;19983;-80
2022/11/04 06:04:30;;;;;;;;;;;;;;;14.20;61.60;98129.16;4473929;32;20014;-80
2022/11/04 06:06:55;;;;;;;;;;;;;;;14.23;61.64;98120.13;4488245;32;19971;-80
2022/11/04 06:09:37;;;;;;;;;;;;;;;14.26;61.56;98128.66;4473873;32;20012;-80
2022/11/04 06:12:06;;;;;;;;;;;;;;;14.28;61.57;98132.03;4488253;32;19971;-80
2022/11/04 06:14:31;;;;;;;;;;;;;;;14.27;61.42;98129.50;4487703;32;19980;-80
2022/11/04 06:16:59;;;;;;;;;;;;;;;14.26;61.43;98133.97;4488155;32;20307;-80
2022/11/04 06:19:24;;;;;;;;;;;;;;;14.24;61.36;98130.59;4488021;32;19985;-80
2022/11/04 06:21:50;;;;;;;;;;;;;;;14.04;62.03;98137.50;4473696;32;19979;-80
2022/11/04 06:24:15;;;;;;;;;;;;;;;14.10;61.83;98141.44;4488190;32;19990;-80
2022/11/04 06:26:41;;;;;;;;;;;;;;;14.13;61.76;98135.91;4473740;32;20411;-80
2022/11/04 06:29:06;;;;;;;;;;;;;;;14.16;61.74;98131.22;4487999;32;19980;-80
2022/11/04 06:31:31;;;;;;;;;;;;;;;14.14;61.89;98133.16;4488002;32;19983;-80
2022/11/04 06:33:56;;;;;;;;;;;;;;;14.14;61.70;98138.44;4487903;32;19975;-80
2022/11/04 06:36:22;;;;;;;;;;;;;;;14.13;61.68;98133.25;4473909;32;20000;-80
2022/11/04 06:38:47;;;;;;;;;;;;;;;14.13;61.52;98141.22;4487987;32;19980;-80
2022/11/04 06:41:13;;;;;;;;;;;;;;;14.12;61.54;98137.72;4488048;32;19968;-80
2022/11/04 06:43:39;;;;;;;;;;;;;;;14.14;61.66;98140.25;4473801;32;20008;-80
2022/11/04 06:46:04;;;;;;;;;;;;;;;14.12;61.74;98143.03;4487956;32;20361;-80
2022/11/04 06:48:30;;;;;;;;;;;;;;;14.10;61.74;98142.31;4473603;32;19971;-80
2022/11/04 06:50:58;;;;;;;;;;;;;;;14.11;61.86;98151.09;4473503;32;20308;-80
2022/11/04 06:53:24;;;;;;;;;;;;;;;14.13;61.78;98138.56;4460634;32;19980;-80
2022/11/04 06:55:50;;;;;;;;;;;;;;;14.20;61.45;98138.91;4473645;32;19999;-80
2022/11/04 06:58:15;;;;;;;;;;;;;;;14.20;61.43;98131.81;4487851;32;19980;-80
2022/11/04 07:00:40;;;;;;;;;;;;;;;14.25;61.30;98140.22;4473602;32;20011;-80
2022/11/04 07:03:07;;;;;;;;;;;;;;;13.94;62.00;98140.00;4487703;32;19967;-80
2022/11/04 07:05:33;;;;;;;;;;;;;;;13.98;61.84;98135.31;4487919;32;20059;-80
2022/11/04 07:07:58;;;;;;;;;;;;;;;14.08;61.60;98144.22;4473541;32;19971;-80
2022/11/04 07:10:23;;;;;;;;;;;;;;;14.14;61.44;98143.75;4473395;32;19968;-80
2022/11/04 07:12:48;;;;;;;;;;;;;;;14.13;61.45;98136.75;4487408;32;19975;-79
2022/11/04 07:15:14;;;;;;;;;;;;;;;14.10;61.32;98139.66;4487721;32;20361;-83
2022/11/04 07:17:39;;;;;;;;;;;;;;;14.15;61.37;98134.81;4460085;32;19968;-79
2022/11/04 07:20:05;;;;;;;;;;;;;;;14.18;61.27;98132.88;4487728;32;19991;-80
2022/11/04 07:22:30;;;;;;;;;;;;;;;14.19;60.92;98129.28;4460275;32;19995;-80
2022/11/04 07:24:55;;;;;;;;;;;;;;;14.21;60.85;98138.78;4472975;32;20021;-81
2022/11/04 07:27:21;;;;;;;;;;;;;;;14.19;60.90;98139.88;4472707;32;20021;-80
2022/11/04 07:29:46;;;;;;;;;;;;;;;13.28;63.27;98150.38;4472723;32;19971;-80
2022/11/04 07:32:11;;;;;;;;;;;;;;;13.99;61.28;98141.47;4487241;32;19976;-78
2022/11/04 07:34:37;;;;;;;;;;;;;;;14.02;61.03;98135.91;4487632;32;20041;-79
2022/11/04 07:37:02;;;;;;;;;;;;;;;13.98;61.21;98139.78;4472586;32;20445;-81
2022/11/04 07:39:27;;;;;;;;;;;;;;;14.03;61.08;98134.97;4487901;32;19990;-80
2022/11/04 07:41:52;;;;;;;;;;;;;;;14.06;60.91;98134.69;4487913;32;20296;-88
2022/11/04 07:44:17;;;;;;;;;;;;;;;14.13;60.80;98128.78;4487959;32;19987;-78
2022/11/04 07:46:43;;;;;;;;;;;;;;;14.08;60.95;98136.28;4487692;32;20350;-78
2022/11/04 07:49:08;;;;;;;;;;;;;;;14.19;60.39;98132.75;4487653;32;19980;-80
2022/11/04 07:51:33;;;;;;;;;;;;;;;14.19;60.25;98126.63;4487833;32;20311;-80
2022/11/04 07:53:58;;;;;;;;;;;;;;;14.23;60.08;98120.94;4487461;32;19983;-80
2022/11/04 07:56:24;;;;;;;;;;;;;;;14.22;60.19;98114.00;4487604;32;19976;-80
2022/11/04 07:58:49;;;;;;;;;;;;;;;14.23;60.07;98113.00;4487718;32;19972;-80
2022/11/04 08:01:15;;;;;;;;;;;;;;;14.23;60.10;98117.47;4460252;32;19984;-80
2022/11/04 08:03:41;;;;;;;;;;;;;;;14.21;60.27;98112.28;4473451;32;20800;-80
2022/11/04 08:06:07;;;;;;;;;;;;;;;14.24;59.97;98100.63;4473378;32;19980;-80
2022/11/04 08:08:33;;;;;;;;;;;;;;;13.74;61.33;98111.63;4487595;32;20075;-80
2022/11/04 08:10:59;;;;;;;;;;;;;;;13.82;61.31;98105.72;4473237;32;19983;-80
2022/11/04 08:13:28;;;;;;;;;;;;;;;13.99;60.83;98099.09;4473269;32;20348;-80
2022/11/04 08:15:54;;;;;;;;;;;;;;;13.98;60.85;98097.41;4487631;32;19972;-79
2022/11/04 08:18:19;;;;;;;;;;;;;;;14.04;60.60;98097.78;4473274;32;19990;-80
2022/11/04 08:20:50;;;;;;;;;;;;;;;14.06;60.32;98101.13;4487503;32;19972;-80
2022/11/04 08:23:16;;;;;;;;;;;;;;;13.83;60.94;98105.59;4487587;32;19983;-80
2022/11/04 08:25:41;;;;;;;;;;;;;;;13.79;61.10;98098.88;4460069;32;19968;-80
2022/11/04 08:28:07;;;;;;;;;;;;;;;14.02;60.59;98098.84;4473288;32;19972;-80
2022/11/04 08:30:32;;;;;;;;;;;;;;;14.09;60.38;98097.38;4487196;32;19979;-80
2022/11/04 08:32:58;;;;;;;;;;;;;;;14.15;60.04;98097.72;4487302;32;20011;-80
2022/11/04 08:35:24;;;;;;;;;;;;;;;14.10;59.84;98094.63;4487320;32;19972;-80
2022/11/04 08:37:49;;;;;;;;;;;;;;;14.19;59.66;98084.25;4487012;32;20012;-80
2022/11/04 08:40:14;;;;;;;;;;;;;;;14.25;59.47;98089.03;4487357;32;20307;-80
2022/11/04 08:42:39;;;;;;;;;;;;;;;14.26;59.53;98094.22;4487277;32;20217;-80
2022/11/04 08:45:05;;;;;;;;;;;;;;;14.27;59.45;98087.13;4487260;32;19963;-80
2022/11/04 08:47:32;;;;;;;;;;;;;;;14.31;59.46;98088.53;4487217;32;19967;-80
2022/11/04 08:49:57;;;;;;;;;;;;;;;14.33;59.31;98076.00;4459857;32;19988;-79
2022/11/04 08:52:23;;;;;;;;;;;;;;;14.30;59.20;98082.41;4472661;32;20006;-80
2022/11/04 08:54:48;;;;;;;;;;;;;;;14.35;59.04;98082.03;4487085;32;20266;-80
2022/11/04 08:57:14;;;;;;;;;;;;;;;14.39;59.00;98075.53;4472849;32;19964;-80
2022/11/04 08:59:39;;;;;;;;;;;;;;;14.45;58.80;98075.03;4486850;32;19984;-80
2022/11/04 09:02:04;;;;;;;;;;;;;;;14.47;58.70;98073.09;4472886;32;19987;-80
2022/11/04 09:04:29;;;;;;;;;;;;;;;14.38;58.88;98068.53;4486914;32;19967;-80
2022/11/04 09:06:56;;;;;;;;;;;;;;;14.24;59.02;98072.31;4486884;32;20259;-80
2022/11/04 09:09:21;;;;;;;;;;;;;;;13.92;60.04;98067.78;4486954;32;19984;-80
2022/11/04 09:11:47;;;;;;;;;;;;;;;14.16;59.46;98062.34;4486920;32;19990;-80
2022/11/04 09:14:12;;;;;;;;;;;;;;;14.23;59.41;98059.19;4486375;32;20023;-80
2022/11/04 09:16:38;;;;;;;;;;;;;;;14.30;59.18;98058.56;4486473;32;19983;-79
2022/11/04 09:19:03;;;;;;;;;;;;;;;14.08;59.71;98061.25;4472069;32;19994;-80
2022/11/04 09:21:28;;;;;;;;;;;;;;;13.84;60.59;98070.22;4472286;32;19976;-80
2022/11/04 09:23:54;;;;;;;;;;;;;;;13.83;60.62;98055.31;4472376;32;20382;-80
2022/11/04 09:26:19;;;;;;;;;;;;;;;14.13;60.17;98051.16;4486634;32;20227;-80
2022/11/04 09:28:44;;;;;;;;;;;;;;;14.07;60.18;98051.66;4472276;32;20020;-79
2022/11/04 09:31:11;;;;;;;;;;;;;;;14.20;60.30;98055.00;4472396;32;20004;-80
2022/11/04 09:33:37;;;;;;;;;;;;;;;14.21;60.28;98051.38;4472369;32;19971;-80
2022/11/04 09:36:02;;;;;;;;;;;;;;;14.26;60.38;98054.50;4486647;32;20321;-80
2022/11/04 09:38:27;;;;;;;;;;;;;;;14.28;60.14;98057.03;4472249;32;20031;-79
2022/11/04 09:40:53;;;;;;;;;;;;;;;14.29;59.87;98048.94;4486524;32;20315;-80
2022/11/04 09:43:18;;;;;;;;;;;;;;;13.84;60.71;98053.50;4458902;32;20240;-80
2022/11/04 09:45:43;;;;;;;;;;;;;;;14.06;60.16;98044.66;4486128;32;19987;-80
2022/11/04 09:48:11;;;;;;;;;;;;;;;14.12;60.16;98033.59;4471858;32;19987;-80
2022/11/04 09:50:44;;;;;;;;;;;;;;;14.08;60.41;98038.28;4473944;32;20343;-80
2022/11/04 09:53:17;;;;;;;;;;;;;;;13.78;61.56;98041.59;4473984;32;19986;-80
2022/11/04 09:55:48;;;;;;;;;;;;;;;13.81;61.38;98037.84;4474112;32;19976;-80
2022/11/04 09:58:13;;;;;;;;;;;;;;;13.91;60.99;98031.69;4488375;32;20449;-80
2022/11/04 10:00:39;;;;;;;;;;;;;;;13.94;60.90;98039.38;4460956;32;19996;-80
2022/11/04 10:03:07;;;;;;;;;;;;;;;14.04;60.75;98030.69;4474067;32;19968;-80
2022/11/04 10:05:39;;;;;;;;;;;;;;;14.13;60.80;98027.31;4488211;32;20259;-80
2022/11/04 10:08:08;;;;;;;;;;;;;;;14.15;60.85;98012.97;4488291;32;20334;-80
2022/11/04 10:10:45;;;;;;;;;;;;;;;14.17;60.82;98010.19;4473985;32;19996;-80
2022/11/04 10:13:23;;;;;;;;;;;;;;;14.21;60.43;97994.91;4488024;32;20379;-80
2022/11/04 10:16:10;;;;;;;;;;;;;;;14.13;60.62;97992.88;4488327;32;19991;-80
2022/11/04 10:18:41;;;;;;;;;;;;;;;13.87;61.76;97998.50;4473901;32;20003;-80
2022/11/04 10:21:14;;;;;;;;;;;;;;;13.79;61.96;97994.78;4474065;32;19995;-80
2022/11/04 10:23:39;;;;;;;;;;;;;;;13.96;61.55;97991.59;4488147;32;19976;-80
2022/11/04 10:26:13;;;;;;;;;;;;;;;13.77;62.11;97993.09;4488057;32;19976;-80
2022/11/04 10:28:43;;;;;;;;;;;;;;;13.62;62.39;97990.81;4488177;32;19982;-80
2022/11/04 10:31:16;;;;;;;;;;;;;;;13.85;61.98;97994.28;4473984;32;19992;-80
2022/11/04 10:33:46;;;;;;;;;;;;;;;13.67;nan;97993.94;4473642;32;20010;-80
2022/11/04 10:36:14;;;;;;;;;;;;;;;13.75;62.07;97986.22;4473856;32;20032;-80
2022/11/04 10:38:42;;;;;;;;;;;;;;;13.59;62.50;97983.97;4487834;32;19992;-80
2022/11/04 10:41:14;;;;;;;;;;;;;;;13.56;62.67;97993.00;4473670;32;20298;-80
2022/11/04 10:43:39;;;;;;;;;;;;;;;13.48;63.01;97995.44;4487902;32;20025;-80
2022/11/04 10:46:13;;;;;;;;;;;;;;;13.62;62.54;97989.03;4473760;32;19980;-80
2022/11/04 10:48:54;;;;;;;;;;;;;;;13.81;62.20;97985.75;4488020;32;19972;-80
2022/11/04 10:51:21;;;;;;;;;;;;;;;13.83;62.25;97983.81;4473805;32;19995;-80
2022/11/04 10:53:47;;;;;;;;;;;;;;;13.56;63.25;97984.25;4460664;32;20456;-80
2022/11/04 10:56:21;;;;;;;;;;;;;;;13.80;62.39;97981.41;4473614;32;20323;-80
2022/11/04 10:58:46;;;;;;;;;;;;;;;14.01;61.82;97965.59;4473708;32;20006;-80
2022/11/04 11:01:22;;;;;;;;;;;;;;;14.11;61.96;97955.09;4487813;32;20319;-80
2022/11/04 11:03:47;;;;;;;;;;;;;;;14.19;61.85;97946.50;4473498;32;20352;-80
2022/11/04 11:06:15;;;;;;;;;;;;;;;14.18;61.64;97952.75;4487863;32;19992;-80
2022/11/04 11:09:04;;;;;;;;;;;;;;;14.15;61.58;97930.03;4473569;32;20002;-80
2022/11/04 11:11:56;;;;;;;;;;;;;;;14.28;61.36;97943.09;4408048;32;20005;-80
2022/11/04 11:14:27;;;;;;;;;;;;;;;14.32;61.16;97944.53;4377914;32;20018;-80
2022/11/04 11:16:52;;;;;;;;;;;;;;;14.29;61.27;97936.81;4377848;32;19985;-80
2022/11/04 11:19:21;;;;;;;;;;;;;;;14.19;61.54;97943.84;4365395;32;20002;-80
2022/11/04 11:21:47;;;;;;;;;;;;;;;14.35;61.30;97931.88;4365363;32;20013;-80
2022/11/04 11:24:26;;;;;;;;;;;;;;;14.43;61.00;97933.88;4377838;32;19990;-79
2022/11/04 11:27:01;;;;;;;;;;;;;;;14.25;61.47;97932.75;4377982;32;19974;-80
2022/11/04 11:29:29;;;;;;;;;;;;;;;13.59;63.21;97933.69;4365084;32;20167;-80
2022/11/04 11:31:55;;;;;;;;;;;;;;;13.87;62.28;97928.78;4365545;32;20009;-80
2022/11/04 11:34:44;;;;;;;;;;;;;;;13.88;62.48;97931.31;4365206;32;20010;-80
2022/11/04 11:37:32;;;;;;;;;;;;;;;14.09;61.61;97931.38;4333108;33;20002;-80
2022/11/04 11:40:18;;;;;;;;;;;;;;;14.43;61.37;97922.41;4289398;33;19992;-80
2022/11/04 11:43:03;;;;;;;;;;;;;;;14.52;61.29;97922.47;4261019;33;19992;-80
2022/11/04 11:45:53;;;;;;;;;;;;;;;14.63;61.19;97923.41;4218488;34;19971;-80
2022/11/04 11:48:28;;;;;;;;;;;;;;;14.32;62.14;97910.91;4230168;33;20009;-80
2022/11/04 11:50:57;;;;;;;;;;;;;;;14.64;61.33;97917.12;4243847;33;20162;-80
2022/11/04 11:53:24;;;;;;;;;;;;;;;14.55;60.82;97916.09;4246866;33;20001;-80
2022/11/04 11:55:53;;;;;;;;;;;;;;;14.71;60.40;97916.47;4246998;33;20471;-80
2022/11/04 11:58:25;;;;;;;;;;;;;;;14.46;60.98;97908.91;4246983;33;20266;-80
2022/11/04 12:00:56;;;;;;;;;;;;;;;14.49;60.65;97903.38;4246981;33;20081;-80
2022/11/04 12:03:22;;;;;;;;;;;;;;;14.54;60.70;97890.53;4246893;33;20053;-80
2022/11/04 12:06:13;;;;;;;;;;;;;;;14.64;60.76;97890.63;4246952;33;20009;-80
2022/11/04 12:08:41;;;;;;;;;;;;;;;14.63;60.69;97873.87;4246776;33;19996;-80
2022/11/04 12:11:14;;;;;;;;;;;;;;;14.45;61.43;97878.94;4246777;33;19985;-80
2022/11/04 12:13:43;;;;;;;;;;;;;;;14.57;61.17;97871.78;4257740;33;19996;-80
2022/11/04 12:16:15;;;;;;;;;;;;;;;14.61;61.17;97867.87;4290637;32;19989;-80
2022/11/04 12:18:55;;;;;;;;;;;;;;;14.64;61.26;97867.63;4377790;32;19970;-79
2022/11/04 12:21:39;;;;;;;;;;;;;;;14.75;61.14;97872.00;4379826;32;19985;-80
2022/11/04 12:24:31;;;;;;;;;;;;;;;14.78;60.94;97862.94;4487569;32;19987;-80
2022/11/04 12:27:22;;;;;;;;;;;;;;;14.74;61.13;97860.56;4407784;32;19978;-80
2022/11/04 12:29:50;;;;;;;;;;;;;;;14.88;60.92;97859.34;4377145;32;20519;-80
2022/11/04 12:32:15;;;;;;;;;;;;;;;14.79;61.25;97838.09;4377423;32;19986;-80
2022/11/04 12:34:44;;;;;;;;;;;;;;;14.50;62.09;97838.78;4377423;32;20041;-80
2022/11/04 12:37:15;;;;;;;;;;;;;;;14.06;63.48;97835.44;4377386;32;20785;-80
2022/11/04 12:40:03;;;;;;;;;;;;;;;14.39;62.31;97830.91;4377348;32;19996;-80
2022/11/04 12:42:43;;;;;;;;;;;;;;;14.64;61.72;97817.28;4364867;32;20001;-80
2022/11/04 12:45:08;;;;;;;;;;;;;;;14.78;61.70;97810.75;4377296;32;20082;-80
2022/11/04 12:47:35;;;;;;;;;;;;;;;14.90;61.70;97812.31;4377141;32;20002;-80
2022/11/04 12:50:19;;;;;;;;;;;;;;;14.96;61.40;97815.41;4364844;32;20101;-80
2022/11/04 12:52:50;;;;;;;;;;;;;;;14.07;63.21;97824.72;4376895;32;20004;-80
2022/11/04 12:55:27;;;;;;;;;;;;;;;14.58;61.97;97817.78;4376752;32;20010;-80
2022/11/04 12:58:03;;;;;;;;;;;;;;;14.74;61.67;97818.12;4377224;32;19983;-80
2022/11/04 13:00:29;;;;;;;;;;;;;;;14.51;nan;97808.66;4364629;32;19994;-80
2022/11/04 13:03:03;;;;;;;;;;;;;;;14.54;62.02;97803.94;4383820;32;20000;-80
2022/11/04 13:05:31;;;;;;;;;;;;;;;14.66;61.47;97810.03;4398652;32;20535;-80
2022/11/04 13:07:57;;;;;;;;;;;;;;;14.53;61.95;97809.38;4486727;32;19988;-80
2022/11/04 13:10:24;;;;;;;;;;;;;;;14.60;61.85;97799.09;4486665;32;19982;-80
2022/11/04 13:12:50;;;;;;;;;;;;;;;14.65;61.69;97800.38;4472364;32;20037;-80
2022/11/04 13:15:18;;;;;;;;;;;;;;;14.78;61.53;97808.09;4472347;32;19992;-80
2022/11/04 13:17:44;;;;;;;;;;;;;;;14.61;61.90;97798.97;4472372;32;20323;-80
2022/11/04 13:20:10;;;;;;;;;;;;;;;14.70;61.60;97792.88;4472251;32;19986;-80
2022/11/04 13:22:35;;;;;;;;;;;;;;;14.75;61.61;97797.75;4486531;32;20330;-81
2022/11/04 13:25:13;;;;;;;;;;;;;;;14.82;61.60;97798.06;4473635;32;20007;-80